Yiwu, China
Current Conditions -  °F | °C
As of 8:30 AM on Tuesday 25 Nov 2014 (Local Time) from ZWWW Reporting Station
Smoke Smoke  
Wind Chill: 26°   Ceiling: Unl
Heat Index: 32°   Visibility: 3mi
Dew Point: 23°   Wind: 7mph
Humidity: 69%   Direction: 140°SE
Pressure: 29.97"   Gusts: NA
Location:  43.27°N, 94.7°E
Report Text: ZWWW 250030Z 14003MPS 5000 FU NSC M00/M05 Q1015 NOSIG
Loading
Personal Weather Stations






























Interactive Weather Map New forecast layout! Learn more

10-Day Weather Forecast

Advertisements
Track Severe Weather on mobile